M/T Goviken — 9HA2718 — position and weather

sailwx.info

Track history (hours):
 
Tides and Currents Weather Stations Pressure Air Temp Water Temp Dewpoint Dewpoint Depression Visibility Wind Speed Wind Dir Waves Ship Positions

M/T Goviken

Last reported at 2015-Aug-02 02:34 UTC. Time now 2015-Aug-02 10:19 UTC.
Position N 59°13' E 005°32'.

Length 88 m; draft 5.3 m.

Type: Ship (hazmat cat A). MMSI: 215389000.

Date/timePositionNaut miles runAvg speedWind from/ knotsBaromVisibWave heightAir tempDewpointWater temp
2015-Aug-02 02:34N 59°13' E 005°32'1010.2
2015-Aug-02 01:34N 59°05' E 005°21'1010.1
2015-Aug-02 00:34N 58°57' E 005°09'1110.9
2015-Aug-01 23:34N 58°46' E 005°06'26911.7
2015-Aug-01 00:34N 54°17' E 005°12'1211.6
2015-Jul-31 23:32N 54°05' E 005°07'1111.6
2015-Jul-31 22:33N 53°54' E 005°00'1211.6
2015-Jul-31 21:29N 53°43' E 004°54'1111.6
2015-Jul-31 20:34N 53°33' E 004°47'1211.7
2015-Jul-31 19:34N 53°22' E 004°39'1612.5
2015-Jul-31 18:16N 53°07' E 004°28'1513.2
2015-Jul-31 17:09N 52°54' E 004°17'813.0
2015-Jul-31 16:34N 52°47' E 004°11'1313.0
2015-Jul-31 15:33N 52°37' E 003°57'1313.2
2015-Jul-31 14:33N 52°24' E 003°53'1312.8
2015-Jul-31 13:34N 52°12' E 003°54'1111.1
2015-Jul-31 12:34N 52°01' E 003°59'1010.1
2015-Jul-31 11:34N 51°55' E 004°13'3 2.8
2015-Jul-31 10:31N 51°53' E 004°15'0 0.0
2015-Jul-31 08:31N 51°53' E 004°15'0 0.0
2015-Jul-31 07:25N 51°53' E 004°15'0 0.0
2015-Jul-31 06:31N 51°53' E 004°15'0 0.0
2015-Jul-31 05:19N 51°53' E 004°15'0 0.0
2015-Jul-31 04:28N 51°53' E 004°15'0 0.0
2015-Jul-31 03:28N 51°53' E 004°15'0 0.0
2015-Jul-31 02:31N 51°53' E 004°15'0 0.0
2015-Jul-31 01:31N 51°53' E 004°15'0 0.0
2015-Jul-31 00:19N 51°53' E 004°15'0 0.0
2015-Jul-30 23:31N 51°53' E 004°15'0 0.0
2015-Jul-30 22:31N 51°53' E 004°15'0 0.0
2015-Jul-30 21:25N 51°53' E 004°15'0 0.0
2015-Jul-30 20:25N 51°53' E 004°15'0 0.0
2015-Jul-30 19:31N 51°53' E 004°15'0 0.0
2015-Jul-30 18:16N 51°53' E 004°15'0 0.0
2015-Jul-30 17:19N 51°53' E 004°15'0 0.0
2015-Jul-30 16:28N 51°53' E 004°15'0 0.0
2015-Jul-30 15:28N 51°53' E 004°15'0 0.0
2015-Jul-30 14:28N 51°53' E 004°15'0 0.0
2015-Jul-30 13:28N 51°53' E 004°15'1 1.4
2015-Jul-30 12:33N 51°54' E 004°14'3 3.5
2015-Jul-30 11:34N 51°56' E 004°11'1211.6
2015-Jul-30 10:33N 52°00' E 003°53'8 7.8
2015-Jul-30 09:33N 52°07' E 003°46'1212.3
2015-Jul-30 08:33N 52°19' E 003°47'1312.6
2015-Jul-30 07:33N 52°32' E 003°51'1312.6
2015-Jul-30 06:33N 52°44' E 003°56'1212.0
2015-Jul-30 05:33N 52°56' E 004°00'1010.5
2015-Jul-30 04:33N 53°04' E 004°12'23 9.2
2015-Jul-30 02:06N 53°23' E 004°32'610.1
2015-Jul-30 01:32N 53°28' E 004°35'3210.7
2015-Jul-29 22:33N 53°58' E 004°53'1010.0
2015-Jul-29 21:34N 54°08' E 004°59'1010.0
2015-Jul-29 20:33N 54°18' E 005°04'23511.1
2015-Jul-28 23:18N 58°13' E 005°02'912.4
2015-Jul-28 22:34N 58°22' E 005°03'1312.5
2015-Jul-28 21:33N 58°35' E 005°05'1212.2
2015-Jul-28 20:33N 58°47' E 005°06'1212.0
2015-Jul-28 19:33N 58°59' E 005°10'1111.4
2015-Jul-28 18:33N 59°07' E 005°25'10 9.8
2015-Jul-28 17:33N 59°16' E 005°30'0 0.0
2015-Jul-28 02:33N 59°16' E 005°30'8 7.7
2015-Jul-28 01:34N 59°09' E 005°31'5 5.2
2015-Jul-28 00:33N 59°05' E 005°23'6 6.1
2015-Jul-27 23:33N 59°02' E 005°13'9 9.1
2015-Jul-27 22:33N 58°54' E 005°07'1010.4
2015-Jul-27 21:34N 58°43' E 005°06'1211.6
2015-Jul-27 20:33N 58°32' E 005°05'1111.4
2015-Jul-27 19:33N 58°20' E 005°04'1211.4
2015-Jul-27 18:31N 58°09' E 005°04'23711.9
2015-Jul-26 22:33N 54°12' E 005°10'1212.0
2015-Jul-26 21:33N 54°00' E 005°04'1211.9
2015-Jul-26 20:33N 53°49' E 004°58'1211.6
2015-Jul-26 19:33N 53°38' E 004°51'1111.4
2015-Jul-26 18:33N 53°28' E 004°44'2311.4
2015-Jul-26 16:33N 53°07' E 004°28'1111.5
2015-Jul-26 15:33N 52°57' E 004°19'1211.7
2015-Jul-26 14:33N 52°47' E 004°10'1212.0
2015-Jul-26 13:33N 52°37' E 003°57'6411.7
2015-Jul-26 08:04N 51°37' E 003°22'612.4
2015-Jul-26 07:33N 51°31' E 003°26'10 9.5
2015-Jul-26 06:33N 51°25' E 003°38'10 9.9
2015-Jul-26 05:33N 51°21' E 003°53'6 6.2
2015-Jul-26 04:33N 51°23' E 004°02'9 9.3
2015-Jul-26 03:33N 51°20' E 004°16'4 4.2
2015-Jul-26 02:33N 51°17' E 004°20'2 1.9
2015-Jul-26 01:31N 51°15' E 004°22'0 0.0
2015-Jul-26 00:31N 51°15' E 004°22'0 0.0
2015-Jul-25 23:31N 51°15' E 004°22'0 0.0
2015-Jul-25 22:31N 51°15' E 004°22'0 0.0
2015-Jul-25 21:31N 51°15' E 004°22'0 0.0
2015-Jul-25 20:31N 51°15' E 004°22'0 0.0
2015-Jul-25 19:31N 51°15' E 004°22'0 0.0
2015-Jul-25 18:31N 51°15' E 004°22'0 0.0
2015-Jul-25 17:31N 51°15' E 004°22'0 0.0
2015-Jul-25 16:31N 51°15' E 004°22'0 0.0
2015-Jul-25 15:31N 51°15' E 004°22'0 0.0
2015-Jul-25 14:25N 51°15' E 004°22'0 0.0
2015-Jul-25 13:31N 51°15' E 004°22'0 0.0
2015-Jul-25 12:28N 51°15' E 004°22'0 0.0
2015-Jul-25 11:28N 51°15' E 004°22'0 0.0
2015-Jul-25 10:31N 51°15' E 004°22'0 0.0
2015-Jul-25 09:31N 51°15' E 004°22'0 0.0
2015-Jul-25 08:31N 51°15' E 004°22'0 0.0
2015-Jul-25 07:31N 51°15' E 004°22'1 1.1
2015-Jul-25 06:33N 51°16' E 004°21'5 5.3
2015-Jul-25 05:33N 51°21' E 004°17'0 0.0
2015-Jul-25 04:33N 51°21' E 004°17'5 4.6
2015-Jul-25 03:33N 51°24' E 004°12'9 8.7
2015-Jul-25 02:33N 51°26' E 003°58'9 9.5
2015-Jul-25 01:34N 51°22' E 003°44'7 7.4
2015-Jul-25 00:34N 51°25' E 003°33'5 5.2
2015-Jul-24 23:33N 51°29' E 003°29'8 8.1
2015-Jul-24 22:32N 51°37' E 003°22'9 9.4
2015-Jul-24 21:33N 51°45' E 003°15'4 2.1
2015-Jul-24 19:32N 51°48' E 003°20'0 0.2
2015-Jul-24 18:32N 51°48' E 003°20'0 0.1
2015-Jul-24 17:26N 51°48' E 003°20'0 0.0
2015-Jul-24 16:32N 51°48' E 003°20'0 0.0
2015-Jul-24 15:32N 51°48' E 003°20'0 0.0
2015-Jul-24 14:32N 51°48' E 003°20'0 0.0
2015-Jul-24 13:32N 51°48' E 003°20'0 0.0
2015-Jul-24 12:32N 51°48' E 003°20'0 0.0
2015-Jul-24 08:17N 51°48' E 003°20'0 0.0
2015-Jul-24 07:32N 51°48' E 003°20'0 0.0
2015-Jul-24 06:32N 51°48' E 003°20'0 0.0
2015-Jul-24 05:29N 51°48' E 003°20'0 0.0
2015-Jul-24 02:17N 51°48' E 003°20'0 0.0
2015-Jul-23 18:29N 51°48' E 003°20'0 0.0
2015-Jul-23 10:32N 51°48' E 003°20'7610.9
2015-Jul-23 03:33N 52°59' E 004°04'  
Track history (hours):
 
Tides and Currents Weather Stations Pressure Air Temp Water Temp Dewpoint Dewpoint Depression Visibility Wind Speed Wind Dir Waves Ship Positions

M/T Goviken

Last reported at 2015-Aug-02 02:34 UTC. Time now 2015-Aug-02 10:19 UTC.
Position N 59°13' E 005°32'.

Length 88 m; draft 5.3 m.

Type: Ship (hazmat cat A). MMSI: 215389000.

Date/timePositionNaut miles runAvg speedWind from/ knotsBaromVisibWave heightAir tempDewpointWater temp
2015-Aug-02 02:34N 59°13' E 005°32'1010.2
2015-Aug-02 01:34N 59°05' E 005°21'1010.1
2015-Aug-02 00:34N 58°57' E 005°09'1110.9
2015-Aug-01 23:34N 58°46' E 005°06'26911.7
2015-Aug-01 00:34N 54°17' E 005°12'1211.6
2015-Jul-31 23:32N 54°05' E 005°07'1111.6
2015-Jul-31 22:33N 53°54' E 005°00'1211.6
2015-Jul-31 21:29N 53°43' E 004°54'1111.6
2015-Jul-31 20:34N 53°33' E 004°47'1211.7
2015-Jul-31 19:34N 53°22' E 004°39'1612.5
2015-Jul-31 18:16N 53°07' E 004°28'1513.2
2015-Jul-31 17:09N 52°54' E 004°17'813.0
2015-Jul-31 16:34N 52°47' E 004°11'1313.0
2015-Jul-31 15:33N 52°37' E 003°57'1313.2
2015-Jul-31 14:33N 52°24' E 003°53'1312.8
2015-Jul-31 13:34N 52°12' E 003°54'1111.1
2015-Jul-31 12:34N 52°01' E 003°59'1010.1
2015-Jul-31 11:34N 51°55' E 004°13'3 2.8
2015-Jul-31 10:31N 51°53' E 004°15'0 0.0
2015-Jul-31 08:31N 51°53' E 004°15'0 0.0
2015-Jul-31 07:25N 51°53' E 004°15'0 0.0
2015-Jul-31 06:31N 51°53' E 004°15'0 0.0
2015-Jul-31 05:19N 51°53' E 004°15'0 0.0
2015-Jul-31 04:28N 51°53' E 004°15'0 0.0
2015-Jul-31 03:28N 51°53' E 004°15'0 0.0
2015-Jul-31 02:31N 51°53' E 004°15'0 0.0
2015-Jul-31 01:31N 51°53' E 004°15'0 0.0
2015-Jul-31 00:19N 51°53' E 004°15'0 0.0
2015-Jul-30 23:31N 51°53' E 004°15'0 0.0
2015-Jul-30 22:31N 51°53' E 004°15'0 0.0
2015-Jul-30 21:25N 51°53' E 004°15'0 0.0
2015-Jul-30 20:25N 51°53' E 004°15'0 0.0
2015-Jul-30 19:31N 51°53' E 004°15'0 0.0
2015-Jul-30 18:16N 51°53' E 004°15'0 0.0
2015-Jul-30 17:19N 51°53' E 004°15'0 0.0
2015-Jul-30 16:28N 51°53' E 004°15'0 0.0
2015-Jul-30 15:28N 51°53' E 004°15'0 0.0
2015-Jul-30 14:28N 51°53' E 004°15'0 0.0
2015-Jul-30 13:28N 51°53' E 004°15'1 1.4
2015-Jul-30 12:33N 51°54' E 004°14'3 3.5
2015-Jul-30 11:34N 51°56' E 004°11'1211.6
2015-Jul-30 10:33N 52°00' E 003°53'8 7.8
2015-Jul-30 09:33N 52°07' E 003°46'1212.3
2015-Jul-30 08:33N 52°19' E 003°47'1312.6
2015-Jul-30 07:33N 52°32' E 003°51'1312.6
2015-Jul-30 06:33N 52°44' E 003°56'1212.0
2015-Jul-30 05:33N 52°56' E 004°00'1010.5
2015-Jul-30 04:33N 53°04' E 004°12'23 9.2
2015-Jul-30 02:06N 53°23' E 004°32'610.1
2015-Jul-30 01:32N 53°28' E 004°35'3210.7
2015-Jul-29 22:33N 53°58' E 004°53'1010.0
2015-Jul-29 21:34N 54°08' E 004°59'1010.0
2015-Jul-29 20:33N 54°18' E 005°04'23511.1
2015-Jul-28 23:18N 58°13' E 005°02'912.4
2015-Jul-28 22:34N 58°22' E 005°03'1312.5
2015-Jul-28 21:33N 58°35' E 005°05'1212.2
2015-Jul-28 20:33N 58°47' E 005°06'1212.0
2015-Jul-28 19:33N 58°59' E 005°10'1111.4
2015-Jul-28 18:33N 59°07' E 005°25'10 9.8
2015-Jul-28 17:33N 59°16' E 005°30'0 0.0
2015-Jul-28 02:33N 59°16' E 005°30'8 7.7
2015-Jul-28 01:34N 59°09' E 005°31'5 5.2
2015-Jul-28 00:33N 59°05' E 005°23'6 6.1
2015-Jul-27 23:33N 59°02' E 005°13'9 9.1
2015-Jul-27 22:33N 58°54' E 005°07'1010.4
2015-Jul-27 21:34N 58°43' E 005°06'1211.6
2015-Jul-27 20:33N 58°32' E 005°05'1111.4
2015-Jul-27 19:33N 58°20' E 005°04'1211.4
2015-Jul-27 18:31N 58°09' E 005°04'23711.9
2015-Jul-26 22:33N 54°12' E 005°10'1212.0
2015-Jul-26 21:33N 54°00' E 005°04'1211.9
2015-Jul-26 20:33N 53°49' E 004°58'1211.6
2015-Jul-26 19:33N 53°38' E 004°51'1111.4
2015-Jul-26 18:33N 53°28' E 004°44'2311.4
2015-Jul-26 16:33N 53°07' E 004°28'1111.5
2015-Jul-26 15:33N 52°57' E 004°19'1211.7
2015-Jul-26 14:33N 52°47' E 004°10'1212.0
2015-Jul-26 13:33N 52°37' E 003°57'6411.7
2015-Jul-26 08:04N 51°37' E 003°22'612.4
2015-Jul-26 07:33N 51°31' E 003°26'10 9.5
2015-Jul-26 06:33N 51°25' E 003°38'10 9.9
2015-Jul-26 05:33N 51°21' E 003°53'6 6.2
2015-Jul-26 04:33N 51°23' E 004°02'9 9.3
2015-Jul-26 03:33N 51°20' E 004°16'4 4.2
2015-Jul-26 02:33N 51°17' E 004°20'2 1.9
2015-Jul-26 01:31N 51°15' E 004°22'0 0.0
2015-Jul-26 00:31N 51°15' E 004°22'0 0.0
2015-Jul-25 23:31N 51°15' E 004°22'0 0.0
2015-Jul-25 22:31N 51°15' E 004°22'0 0.0
2015-Jul-25 21:31N 51°15' E 004°22'0 0.0
2015-Jul-25 20:31N 51°15' E 004°22'0 0.0
2015-Jul-25 19:31N 51°15' E 004°22'0 0.0
2015-Jul-25 18:31N 51°15' E 004°22'0 0.0
2015-Jul-25 17:31N 51°15' E 004°22'0 0.0
2015-Jul-25 16:31N 51°15' E 004°22'0 0.0
2015-Jul-25 15:31N 51°15' E 004°22'0 0.0
2015-Jul-25 14:25N 51°15' E 004°22'0 0.0
2015-Jul-25 13:31N 51°15' E 004°22'0 0.0
2015-Jul-25 12:28N 51°15' E 004°22'0 0.0
2015-Jul-25 11:28N 51°15' E 004°22'0 0.0
2015-Jul-25 10:31N 51°15' E 004°22'0 0.0
2015-Jul-25 09:31N 51°15' E 004°22'0 0.0
2015-Jul-25 08:31N 51°15' E 004°22'0 0.0
2015-Jul-25 07:31N 51°15' E 004°22'1 1.1
2015-Jul-25 06:33N 51°16' E 004°21'5 5.3
2015-Jul-25 05:33N 51°21' E 004°17'0 0.0
2015-Jul-25 04:33N 51°21' E 004°17'5 4.6
2015-Jul-25 03:33N 51°24' E 004°12'9 8.7
2015-Jul-25 02:33N 51°26' E 003°58'9 9.5
2015-Jul-25 01:34N 51°22' E 003°44'7 7.4
2015-Jul-25 00:34N 51°25' E 003°33'5 5.2
2015-Jul-24 23:33N 51°29' E 003°29'8 8.1
2015-Jul-24 22:32N 51°37' E 003°22'9 9.4
2015-Jul-24 21:33N 51°45' E 003°15'4 2.1
2015-Jul-24 19:32N 51°48' E 003°20'0 0.2
2015-Jul-24 18:32N 51°48' E 003°20'0 0.1
2015-Jul-24 17:26N 51°48' E 003°20'0 0.0
2015-Jul-24 16:32N 51°48' E 003°20'0 0.0
2015-Jul-24 15:32N 51°48' E 003°20'0 0.0
2015-Jul-24 14:32N 51°48' E 003°20'0 0.0
2015-Jul-24 13:32N 51°48' E 003°20'0 0.0
2015-Jul-24 12:32N 51°48' E 003°20'0 0.0
2015-Jul-24 08:17N 51°48' E 003°20'0 0.0
2015-Jul-24 07:32N 51°48' E 003°20'0 0.0
2015-Jul-24 06:32N 51°48' E 003°20'0 0.0
2015-Jul-24 05:29N 51°48' E 003°20'0 0.0
2015-Jul-24 02:17N 51°48' E 003°20'0 0.0
2015-Jul-23 18:29N 51°48' E 003°20'0 0.0
2015-Jul-23 10:32N 51°48' E 003°20'7610.9
2015-Jul-23 03:33N 52°59' E 004°04'  

Dump ship's entire track history